createdAt,value
2019-04-25T00:00:02.187Z,94923.00
2019-04-25T00:02:42.261Z,94921.00
2019-04-25T00:05:14.007Z,94920.00
2019-04-25T00:07:44.952Z,94920.00
2019-04-25T00:10:16.018Z,94913.00
2019-04-25T00:12:46.651Z,94917.00
2019-04-25T00:15:17.705Z,94915.00
2019-04-25T00:17:48.314Z,94910.00
2019-04-25T00:20:19.470Z,94920.00
2019-04-25T00:23:02.026Z,94918.00
2019-04-25T00:26:01.356Z,94925.00
2019-04-25T00:28:32.103Z,94931.00
2019-04-25T00:31:03.506Z,94929.00
2019-04-25T00:33:34.007Z,94942.00
2019-04-25T00:36:04.501Z,94937.00
2019-04-25T00:38:34.967Z,94942.00
2019-04-25T00:41:05.637Z,94935.00
2019-04-25T00:43:36.121Z,94945.00
2019-04-25T00:46:06.638Z,94942.00
2019-04-25T00:48:37.097Z,94948.00
2019-04-25T00:51:07.571Z,94945.00
2019-04-25T00:53:38.071Z,94949.00
2019-04-25T00:56:08.563Z,94954.00
2019-04-25T00:59:16.091Z,94960.00
2019-04-25T01:02:11.476Z,94952.00
2019-04-25T01:04:43.028Z,94949.00
2019-04-25T01:07:16.576Z,94948.00
2019-04-25T01:09:47.717Z,94946.00
2019-04-25T01:12:18.443Z,94948.00
2019-04-25T01:14:48.866Z,94947.00
2019-04-25T01:17:19.341Z,94938.00
2019-04-25T01:19:49.812Z,94923.00
2019-04-25T01:22:20.311Z,94935.00
2019-04-25T01:24:53.864Z,94942.00
2019-04-25T01:27:24.866Z,94940.00
2019-04-25T01:29:56.347Z,94949.00
2019-04-25T01:32:33.937Z,94945.00
2019-04-25T01:35:18.507Z,94923.00
2019-04-25T01:38:10.762Z,94931.00
2019-04-25T01:40:55.617Z,94928.00
2019-04-25T01:43:53.219Z,94922.00
2019-04-25T01:46:25.393Z,94934.00
2019-04-25T01:48:56.534Z,94922.00
2019-04-25T01:51:27.103Z,94918.00
2019-04-25T01:53:57.590Z,94926.00
2019-04-25T01:56:28.036Z,94924.00
2019-04-25T01:58:59.466Z,94921.00
2019-04-25T02:01:30.282Z,94923.00
2019-04-25T02:04:00.748Z,94925.00
2019-04-25T02:06:31.355Z,94927.00
2019-04-25T02:09:01.820Z,94928.00
2019-04-25T02:11:57.354Z,94923.00
2019-04-25T02:14:27.924Z,94922.00
2019-04-25T02:16:58.771Z,94920.00
2019-04-25T02:19:29.226Z,94925.00
2019-04-25T02:21:59.944Z,94914.00
2019-04-25T02:24:31.797Z,94907.00
2019-04-25T02:27:04.414Z,94918.00
2019-04-25T02:29:34.484Z,94918.00
2019-04-25T02:32:08.931Z,94919.00
2019-04-25T02:34:39.763Z,94917.00
2019-04-25T02:37:10.262Z,94916.00
2019-04-25T02:39:41.612Z,94915.00
2019-04-25T02:42:14.323Z,94926.00
2019-04-25T02:44:56.216Z,94912.00
2019-04-25T02:47:46.307Z,94911.00
2019-04-25T02:50:51.108Z,94919.00
2019-04-25T02:53:44.667Z,94924.00
2019-04-25T02:56:30.543Z,94918.00
2019-04-25T02:58:50.840Z,94924.00
2019-04-25T03:01:25.316Z,94907.00
2019-04-25T03:03:54.675Z,94919.00
2019-04-25T03:06:25.465Z,94908.00
2019-04-25T03:08:57.795Z,94918.00
2019-04-25T03:11:28.119Z,94921.00
2019-04-25T03:14:00.142Z,94913.00
2019-04-25T03:16:30.750Z,94912.00
2019-04-25T03:19:14.250Z,94910.00
2019-04-25T03:21:46.443Z,94911.00
2019-04-25T03:24:17.129Z,94917.00
2019-04-25T03:26:47.977Z,94919.00
2019-04-25T03:29:18.439Z,94913.00
2019-04-25T03:31:48.939Z,94920.00
2019-04-25T03:34:20.780Z,94922.00
2019-04-25T03:36:51.736Z,94932.00
2019-04-25T03:39:24.187Z,94929.00
2019-04-25T03:41:54.458Z,94930.00
2019-04-25T03:44:25.332Z,94924.00
2019-04-25T03:46:55.866Z,94925.00
2019-04-25T03:49:26.363Z,94921.00
2019-04-25T03:51:56.858Z,94930.00
2019-04-25T03:54:27.443Z,94928.00
2019-04-25T03:56:57.898Z,94926.00
2019-04-25T03:59:28.348Z,94924.00
2019-04-25T04:02:01.131Z,94923.00
2019-04-25T04:04:31.049Z,94937.00
2019-04-25T04:07:01.489Z,94932.00
2019-04-25T04:09:33.698Z,94922.00
2019-04-25T04:12:05.557Z,94935.00
2019-04-25T04:14:36.801Z,94931.00
2019-04-25T04:17:33.891Z,94930.00
2019-04-25T04:20:36.037Z,94931.00
2019-04-25T04:23:17.109Z,94938.00
2019-04-25T04:25:47.569Z,94931.00
2019-04-25T04:28:18.085Z,94935.00
2019-04-25T04:30:48.768Z,94942.00
2019-04-25T04:33:29.446Z,94945.00
2019-04-25T04:35:51.573Z,94948.00
2019-04-25T04:38:22.153Z,94955.00
2019-04-25T04:40:52.633Z,94945.00
2019-04-25T04:43:23.952Z,94951.00
2019-04-25T04:45:55.373Z,94957.00
2019-04-25T04:48:25.853Z,94956.00
2019-04-25T04:50:56.356Z,94960.00
2019-04-25T04:53:26.883Z,94942.00
2019-04-25T04:55:57.436Z,94941.00
2019-04-25T04:58:30.672Z,94939.00
2019-04-25T05:01:01.143Z,94950.00
2019-04-25T05:03:42.025Z,94939.00
2019-04-25T05:06:20.855Z,94948.00
2019-04-25T05:08:58.190Z,94951.00
2019-04-25T05:11:28.849Z,94955.00
2019-04-25T05:14:00.977Z,94958.00
2019-04-25T05:16:34.361Z,94958.00
2019-04-25T05:19:04.941Z,94951.00
2019-04-25T05:21:35.527Z,94942.00
2019-04-25T05:24:26.585Z,94960.00
2019-04-25T05:26:57.564Z,94956.00
2019-04-25T05:29:28.116Z,94949.00
2019-04-25T05:31:58.649Z,94953.00
2019-04-25T05:34:29.103Z,94948.00
2019-04-25T05:37:01.673Z,94945.00
2019-04-25T05:39:33.475Z,94948.00
2019-04-25T05:42:09.837Z,94945.00
2019-04-25T05:44:44.505Z,94938.00
2019-04-25T05:47:16.003Z,94939.00
2019-04-25T05:49:47.689Z,94942.00
2019-04-25T05:52:18.309Z,94932.00
2019-04-25T05:54:48.810Z,94930.00
2019-04-25T05:57:19.431Z,94924.00
2019-04-25T05:59:50.483Z,94926.00
2019-04-25T06:02:21.571Z,94927.00
2019-04-25T06:04:53.543Z,94925.00
2019-04-25T06:07:25.824Z,94930.00
2019-04-25T06:10:21.982Z,94934.00
2019-04-25T06:13:26.460Z,94929.00
2019-04-25T06:16:25.635Z,94925.00
2019-04-25T06:19:19.588Z,94914.00
2019-04-25T06:21:50.974Z,94925.00
2019-04-25T06:24:40.339Z,94923.00
2019-04-25T06:27:29.905Z,94930.00
2019-04-25T06:30:04.407Z,94914.00
2019-04-25T06:32:35.529Z,94917.00
2019-04-25T06:35:09.438Z,94927.00
2019-04-25T06:37:40.117Z,94920.00
2019-04-25T06:40:11.725Z,94918.00
2019-04-25T06:42:43.535Z,94923.00
2019-04-25T06:45:41.842Z,94923.00
2019-04-25T06:48:29.108Z,94922.00
2019-04-25T06:50:59.624Z,94914.00
2019-04-25T06:53:30.560Z,94909.00
2019-04-25T06:56:01.542Z,94914.00
2019-04-25T06:58:34.617Z,94914.00
2019-04-25T07:01:05.227Z,94909.00
2019-04-25T07:03:35.854Z,94909.00
2019-04-25T07:06:06.905Z,94906.00
2019-04-25T07:08:37.538Z,94906.00
2019-04-25T07:11:07.980Z,94898.00
2019-04-25T07:13:38.967Z,94898.00
2019-04-25T07:16:09.616Z,94904.00
2019-04-25T07:18:40.108Z,94895.00
2019-04-25T07:21:10.633Z,94888.00
2019-04-25T07:23:41.220Z,94891.00
2019-04-25T07:26:26.107Z,94891.00
2019-04-25T07:29:13.441Z,94884.00
2019-04-25T07:32:06.090Z,94886.00
2019-04-25T07:34:36.768Z,94886.00
2019-04-25T07:37:07.223Z,94883.00
2019-04-25T07:39:37.748Z,94883.00
2019-04-25T07:42:08.232Z,94889.00
2019-04-25T07:44:49.863Z,94886.00
2019-04-25T07:47:11.204Z,94872.00
2019-04-25T07:49:43.265Z,94881.00
2019-04-25T07:52:13.963Z,94875.00
2019-04-25T07:54:44.536Z,94878.00
2019-04-25T07:57:15.266Z,94882.00
2019-04-25T07:59:51.704Z,94881.00
2019-04-25T08:02:23.320Z,94870.00
2019-04-25T08:04:56.979Z,94876.00
2019-04-25T08:07:28.145Z,94869.00
2019-04-25T08:09:58.812Z,94872.00
2019-04-25T08:12:30.494Z,94872.00
2019-04-25T08:15:08.871Z,94865.00
2019-04-25T08:18:08.035Z,94863.00
2019-04-25T08:20:40.240Z,94867.00
2019-04-25T08:23:11.628Z,94876.00
2019-04-25T08:25:43.412Z,94863.00
2019-04-25T08:28:13.985Z,94859.00
2019-04-25T08:30:44.592Z,94859.00
2019-04-25T08:33:15.146Z,94854.00
2019-04-25T08:36:03.636Z,94862.00
2019-04-25T08:38:18.216Z,94863.00
2019-04-25T08:40:50.216Z,94864.00
2019-04-25T08:43:20.824Z,94860.00
2019-04-25T08:45:54.262Z,94861.00
2019-04-25T08:48:27.917Z,94859.00
2019-04-25T08:51:09.688Z,94861.00
2019-04-25T08:53:56.074Z,94853.00
2019-04-25T08:56:31.866Z,94853.00
2019-04-25T08:59:34.177Z,94845.00
2019-04-25T09:02:19.492Z,94848.00
2019-04-25T09:05:14.373Z,94849.00
2019-04-25T09:07:45.330Z,94846.00
2019-04-25T09:10:16.118Z,94838.00
2019-04-25T09:12:46.616Z,94840.00
2019-04-25T09:15:17.273Z,94836.00
2019-04-25T09:17:47.797Z,94839.00
2019-04-25T09:20:18.821Z,94832.00
2019-04-25T09:22:49.347Z,94845.00
2019-04-25T09:25:19.957Z,94841.00
2019-04-25T09:27:50.486Z,94832.00
2019-04-25T09:30:21.000Z,94828.00
2019-04-25T09:32:51.470Z,94845.00
2019-04-25T09:35:23.660Z,94840.00
2019-04-25T09:37:54.474Z,94834.00
2019-04-25T09:40:25.181Z,94830.00
2019-04-25T09:42:56.206Z,94824.00
2019-04-25T09:45:46.127Z,94824.00
2019-04-25T09:48:36.227Z,94828.00
2019-04-25T09:51:14.589Z,94835.00
2019-04-25T09:53:51.215Z,94829.00
2019-04-25T09:56:27.206Z,94824.00
2019-04-25T09:59:26.783Z,94824.00
2019-04-25T10:01:50.446Z,94823.00
2019-04-25T10:04:22.988Z,94813.00
2019-04-25T10:06:53.953Z,94816.00
2019-04-25T10:09:26.058Z,94809.00
2019-04-25T10:11:56.533Z,94808.00
2019-04-25T10:14:59.302Z,94805.00
2019-04-25T10:17:30.851Z,94805.00
2019-04-25T10:20:01.263Z,94805.00
2019-04-25T10:22:31.817Z,94808.00
2019-04-25T10:25:03.370Z,94795.00
2019-04-25T10:27:34.217Z,94788.00
2019-04-25T10:30:16.815Z,94792.00
2019-04-25T10:32:41.149Z,94793.00
2019-04-25T10:35:14.661Z,94784.00
2019-04-25T10:37:45.593Z,94786.00
2019-04-25T10:40:18.078Z,94794.00
2019-04-25T10:42:50.370Z,94783.00
2019-04-25T10:45:23.737Z,94788.00
2019-04-25T10:47:54.991Z,94777.00
2019-04-25T10:50:25.389Z,94779.00
2019-04-25T10:52:56.193Z,94784.00
2019-04-25T10:55:26.687Z,94767.00
2019-04-25T10:57:57.186Z,94770.00
2019-04-25T11:00:34.415Z,94774.00
2019-04-25T11:03:30.815Z,94783.00
2019-04-25T11:06:01.405Z,94772.00
2019-04-25T11:08:33.876Z,94768.00
2019-04-25T11:11:05.039Z,94776.00
2019-04-25T11:13:36.122Z,94776.00
2019-04-25T11:16:07.755Z,94768.00
2019-04-25T11:18:38.343Z,94764.00
2019-04-25T11:21:08.862Z,94769.00
2019-04-25T11:23:39.371Z,94772.00
2019-04-25T11:26:10.386Z,94752.00
2019-04-25T11:28:45.129Z,94763.00
2019-04-25T11:31:23.363Z,94777.00
2019-04-25T11:33:54.502Z,94767.00
2019-04-25T11:36:25.534Z,94773.00
2019-04-25T11:39:13.474Z,94761.00
2019-04-25T11:41:46.202Z,94770.00
2019-04-25T11:44:16.408Z,94773.00
2019-04-25T11:46:46.887Z,94754.00
2019-04-25T11:49:17.785Z,94767.00
2019-04-25T11:51:48.271Z,94764.00
2019-04-25T11:54:19.993Z,94761.00
2019-04-25T11:56:50.750Z,94758.00
2019-04-25T11:59:21.405Z,94769.00
2019-04-25T12:01:52.278Z,94759.00
2019-04-25T12:04:23.906Z,94769.00
2019-04-25T12:06:54.520Z,94774.00
2019-04-25T12:09:25.335Z,94762.00
2019-04-25T12:11:56.182Z,94766.00
2019-04-25T12:14:28.657Z,94742.00
2019-04-25T12:16:59.250Z,94750.00
2019-04-25T12:19:35.773Z,94770.00
2019-04-25T12:22:03.910Z,94751.00
2019-04-25T12:24:34.776Z,94751.00
2019-04-25T12:27:06.901Z,94742.00
2019-04-25T12:29:38.897Z,94753.00
2019-04-25T12:32:10.559Z,94766.00
2019-04-25T12:34:41.001Z,94755.00
2019-04-25T12:37:11.493Z,94757.00
2019-04-25T12:39:41.991Z,94760.00
2019-04-25T12:42:14.342Z,94758.00
2019-04-25T12:44:59.081Z,94753.00
2019-04-25T12:47:31.078Z,94753.00
2019-04-25T12:50:01.588Z,94767.00
2019-04-25T12:52:33.302Z,94746.00
2019-04-25T12:55:05.399Z,94746.00
2019-04-25T12:57:36.112Z,94736.00
2019-04-25T13:00:07.455Z,94741.00
2019-04-25T13:02:37.945Z,94746.00
2019-04-25T13:05:10.238Z,94732.00
2019-04-25T13:07:40.843Z,94739.00
2019-04-25T13:10:13.141Z,94745.00
2019-04-25T13:12:45.046Z,94745.00
2019-04-25T13:15:16.026Z,94739.00
2019-04-25T13:17:46.590Z,94733.00
2019-04-25T13:20:17.733Z,94737.00
2019-04-25T13:22:48.246Z,94742.00
2019-04-25T13:25:20.534Z,94736.00
2019-04-25T13:28:04.053Z,94746.00
2019-04-25T13:31:01.378Z,94738.00
2019-04-25T13:33:39.463Z,94750.00
2019-04-25T13:36:12.661Z,94739.00
2019-04-25T13:38:43.654Z,94737.00
2019-04-25T13:41:15.542Z,94735.00
2019-04-25T13:43:48.446Z,94748.00
2019-04-25T13:46:21.523Z,94739.00
2019-04-25T13:48:51.266Z,94736.00
2019-04-25T13:51:23.013Z,94738.00
2019-04-25T13:53:54.612Z,94735.00
2019-04-25T13:56:27.163Z,94736.00
2019-04-25T13:58:57.531Z,94744.00
2019-04-25T14:01:28.041Z,94734.00
2019-04-25T14:03:59.190Z,94741.00
2019-04-25T14:06:30.367Z,94737.00
2019-04-25T14:09:01.042Z,94737.00
2019-04-25T14:11:32.719Z,94732.00
2019-04-25T14:14:03.986Z,94730.00
2019-04-25T14:17:05.140Z,94726.00
2019-04-25T14:19:55.321Z,94726.00
2019-04-25T14:22:26.410Z,94724.00
2019-04-25T14:24:57.235Z,94735.00
2019-04-25T14:27:28.083Z,94729.00
2019-04-25T14:29:58.587Z,94723.00
2019-04-25T14:32:30.133Z,94720.00
2019-04-25T14:35:00.706Z,94720.00
2019-04-25T14:37:38.404Z,94720.00
2019-04-25T14:40:05.666Z,94723.00
2019-04-25T14:42:36.670Z,94722.00
2019-04-25T14:45:08.326Z,94720.00
2019-04-25T14:47:39.158Z,94725.00
2019-04-25T14:50:10.458Z,94724.00
2019-04-25T14:52:41.047Z,94727.00
2019-04-25T14:55:36.816Z,94724.00
2019-04-25T14:58:13.612Z,94716.00
2019-04-25T15:00:46.101Z,94709.00
2019-04-25T15:03:16.717Z,94725.00
2019-04-25T15:05:47.183Z,94717.00
2019-04-25T15:08:19.321Z,94715.00
2019-04-25T15:10:50.130Z,94710.00
2019-04-25T15:13:20.743Z,94709.00
2019-04-25T15:15:51.370Z,94707.00
2019-04-25T15:18:23.524Z,94709.00
2019-04-25T15:20:54.761Z,94709.00
2019-04-25T15:23:25.453Z,94698.00
2019-04-25T15:25:55.886Z,94711.00
2019-04-25T15:28:27.488Z,94704.00
2019-04-25T15:30:58.175Z,94698.00
2019-04-25T15:33:28.696Z,94691.00
2019-04-25T15:36:14.430Z,94694.00
2019-04-25T15:38:57.269Z,94675.00
2019-04-25T15:41:38.577Z,94675.00
2019-04-25T15:44:27.042Z,94679.00
2019-04-25T15:46:58.801Z,94678.00
2019-04-25T15:49:29.352Z,94676.00
2019-04-25T15:51:59.905Z,94690.00
2019-04-25T15:54:30.477Z,94680.00
2019-04-25T15:57:00.972Z,94680.00
2019-04-25T15:59:31.619Z,94682.00
2019-04-25T16:02:07.868Z,94682.00
2019-04-25T16:04:34.749Z,94676.00
2019-04-25T16:07:05.274Z,94676.00
2019-04-25T16:09:37.248Z,94670.00
2019-04-25T16:12:08.872Z,94681.00
2019-04-25T16:14:39.416Z,94680.00
2019-04-25T16:17:10.125Z,94670.00
2019-04-25T16:19:41.241Z,94670.00
2019-04-25T16:22:11.865Z,94669.00
2019-04-25T16:24:42.436Z,94673.00
2019-04-25T16:27:13.307Z,94679.00
2019-04-25T16:29:43.899Z,94679.00
2019-04-25T16:32:20.727Z,94692.00
2019-04-25T16:34:50.739Z,94685.00
2019-04-25T16:37:21.272Z,94678.00
2019-04-25T16:40:02.035Z,94697.00
2019-04-25T16:42:33.820Z,94688.00
2019-04-25T16:45:05.100Z,94680.00
2019-04-25T16:47:35.881Z,94680.00
2019-04-25T16:50:07.213Z,94684.00
2019-04-25T16:52:38.006Z,94677.00
2019-04-25T16:55:10.395Z,94675.00
2019-04-25T16:57:41.813Z,94676.00
2019-04-25T17:00:34.056Z,94663.00
2019-04-25T17:03:04.702Z,94667.00
2019-04-25T17:05:37.510Z,94663.00
2019-04-25T17:08:08.200Z,94668.00
2019-04-25T17:10:39.533Z,94661.00
2019-04-25T17:13:10.410Z,94671.00
2019-04-25T17:15:59.022Z,94677.00
2019-04-25T17:18:36.120Z,94669.00
2019-04-25T17:21:11.613Z,94662.00
2019-04-25T17:23:41.180Z,94660.00
2019-04-25T17:26:13.134Z,94664.00
2019-04-25T17:28:47.638Z,94671.00
2019-04-25T17:31:46.842Z,94668.00
2019-04-25T17:34:39.009Z,94661.00
2019-04-25T17:37:22.128Z,94666.00
2019-04-25T17:39:58.192Z,94670.00
2019-04-25T17:42:30.803Z,94671.00
2019-04-25T17:45:07.739Z,94673.00
2019-04-25T17:47:38.587Z,94664.00
2019-04-25T17:50:09.717Z,94670.00
2019-04-25T17:52:40.652Z,94675.00
2019-04-25T17:55:12.419Z,94677.00
2019-04-25T17:57:45.764Z,94670.00
2019-04-25T18:00:37.985Z,94665.00
2019-04-25T18:03:13.345Z,94663.00
2019-04-25T18:05:44.094Z,94670.00
2019-04-25T18:08:15.623Z,94664.00
2019-04-25T18:10:46.316Z,94668.00
2019-04-25T18:13:17.004Z,94669.00
2019-04-25T18:16:06.416Z,94669.00
2019-04-25T18:19:04.922Z,94666.00
2019-04-25T18:21:38.513Z,94676.00
2019-04-25T18:24:37.421Z,94670.00
2019-04-25T18:27:16.829Z,94673.00
2019-04-25T18:29:47.573Z,94670.00
2019-04-25T18:32:18.088Z,94677.00
2019-04-25T18:34:58.101Z,94675.00
2019-04-25T18:37:53.489Z,94668.00
2019-04-25T18:40:36.616Z,94667.00
2019-04-25T18:43:26.373Z,94664.00
2019-04-25T18:46:03.714Z,94663.00
2019-04-25T18:48:34.295Z,94658.00
2019-04-25T18:51:05.071Z,94672.00
2019-04-25T18:53:53.172Z,94670.00
2019-04-25T18:56:31.996Z,94678.00
2019-04-25T18:59:23.454Z,94680.00
2019-04-25T19:02:13.106Z,94679.00
2019-04-25T19:05:05.588Z,94690.00
2019-04-25T19:07:38.474Z,94697.00
2019-04-25T19:10:12.185Z,94690.00
2019-04-25T19:12:45.523Z,94684.00
2019-04-25T19:15:17.462Z,94690.00
2019-04-25T19:17:48.509Z,94690.00
2019-04-25T19:20:20.688Z,94694.00
2019-04-25T19:22:52.559Z,94691.00
2019-04-25T19:25:25.275Z,94695.00
2019-04-25T19:27:59.043Z,94705.00
2019-04-25T19:30:29.618Z,94702.00
2019-04-25T19:33:00.142Z,94705.00
2019-04-25T19:35:31.184Z,94708.00
2019-04-25T19:38:03.586Z,94710.00
2019-04-25T19:40:46.059Z,94704.00
2019-04-25T19:43:25.828Z,94703.00
2019-04-25T19:45:56.431Z,94707.00
2019-04-25T19:48:28.542Z,94707.00
2019-04-25T19:50:59.666Z,94713.00
2019-04-25T19:53:30.239Z,94695.00
2019-04-25T19:56:02.150Z,94707.00
2019-04-25T19:58:32.736Z,94706.00
2019-04-25T20:01:03.803Z,94708.00
2019-04-25T20:03:49.123Z,94714.00
2019-04-25T20:06:24.784Z,94710.00
2019-04-25T20:09:12.600Z,94717.00
2019-04-25T20:11:47.123Z,94712.00
2019-04-25T20:14:18.978Z,94717.00
2019-04-25T20:16:51.721Z,94721.00
2019-04-25T20:19:23.018Z,94720.00
2019-04-25T20:21:54.164Z,94726.00
2019-04-25T20:24:24.939Z,94725.00
2019-04-25T20:26:56.980Z,94720.00
2019-04-25T20:29:27.470Z,94723.00
2019-04-25T20:31:58.018Z,94734.00
2019-04-25T20:34:28.559Z,94727.00
2019-04-25T20:36:59.532Z,94734.00
2019-04-25T20:39:30.541Z,94739.00
2019-04-25T20:42:01.045Z,94739.00
2019-04-25T20:44:32.689Z,94740.00
2019-04-25T20:47:04.342Z,94732.00
2019-04-25T20:49:35.147Z,94743.00
2019-04-25T20:52:05.772Z,94737.00
2019-04-25T20:54:36.379Z,94727.00
2019-04-25T20:57:07.028Z,94733.00
2019-04-25T20:59:37.649Z,94727.00
2019-04-25T21:02:08.815Z,94724.00
2019-04-25T21:04:39.404Z,94736.00
2019-04-25T21:07:10.178Z,94735.00
2019-04-25T21:09:40.954Z,94729.00
2019-04-25T21:12:11.449Z,94727.00
2019-04-25T21:15:13.615Z,94720.00
2019-04-25T21:17:52.687Z,94720.00
2019-04-25T21:20:28.702Z,94709.00
2019-04-25T21:22:59.202Z,94714.00
2019-04-25T21:25:29.663Z,94704.00
2019-04-25T21:28:00.877Z,94707.00
2019-04-25T21:30:31.407Z,94710.00
2019-04-25T21:33:02.081Z,94708.00
2019-04-25T21:35:33.104Z,94712.00
2019-04-25T21:38:03.638Z,94714.00
2019-04-25T21:41:12.800Z,94700.00
2019-04-25T21:43:48.613Z,94708.00
2019-04-25T21:46:19.441Z,94711.00
2019-04-25T21:48:50.208Z,94721.00
2019-04-25T21:51:33.541Z,94715.00
2019-04-25T21:54:05.790Z,94718.00
2019-04-25T21:56:37.609Z,94717.00
2019-04-25T21:59:09.798Z,94713.00
2019-04-25T22:01:42.037Z,94714.00
2019-04-25T22:04:12.600Z,94724.00
2019-04-25T22:06:43.463Z,94712.00
2019-04-25T22:09:19.452Z,94720.00
2019-04-25T22:11:50.409Z,94710.00
2019-04-25T22:14:21.253Z,94712.00
2019-04-25T22:16:52.128Z,94713.00
2019-04-25T22:19:25.883Z,94712.00
2019-04-25T22:21:59.039Z,94710.00
2019-04-25T22:24:29.530Z,94701.00
2019-04-25T22:27:03.257Z,94709.00
2019-04-25T22:29:36.253Z,94706.00
2019-04-25T22:32:30.744Z,94708.00
2019-04-25T22:35:13.818Z,94700.00
2019-04-25T22:37:44.353Z,94706.00
2019-04-25T22:40:14.972Z,94699.00
2019-04-25T22:42:45.496Z,94697.00
2019-04-25T22:45:16.098Z,94695.00
2019-04-25T22:47:47.571Z,94693.00
2019-04-25T22:50:18.013Z,94688.00
2019-04-25T22:52:48.525Z,94698.00
2019-04-25T22:55:18.999Z,94707.00
2019-04-25T22:57:49.756Z,94711.00
2019-04-25T23:00:27.984Z,94714.00
2019-04-25T23:03:03.458Z,94711.00
2019-04-25T23:05:41.197Z,94705.00
2019-04-25T23:08:12.621Z,94712.00
2019-04-25T23:10:47.252Z,94703.00
2019-04-25T23:13:17.724Z,94695.00
2019-04-25T23:15:48.320Z,94691.00
2019-04-25T23:18:19.070Z,94692.00
2019-04-25T23:20:49.599Z,94692.00
2019-04-25T23:23:20.354Z,94681.00
2019-04-25T23:26:14.109Z,94691.00
2019-04-25T23:28:45.072Z,94684.00
2019-04-25T23:31:26.502Z,94689.00
2019-04-25T23:33:58.856Z,94685.00
2019-04-25T23:36:29.332Z,94693.00
2019-04-25T23:38:59.822Z,94683.00
2019-04-25T23:41:30.688Z,94684.00
2019-04-25T23:44:01.163Z,94681.00
2019-04-25T23:46:32.058Z,94666.00
2019-04-25T23:49:02.669Z,94670.00
2019-04-25T23:51:33.277Z,94670.00
2019-04-25T23:54:04.259Z,94676.00
2019-04-25T23:56:34.849Z,94659.00
2019-04-25T23:59:07.368Z,94664.00
